Time;durP1;ratioP1;P1;durP2;ratioP2;P2;SDS_P1;SDS_P2;PMS_P1;PMS_P2;Temp;Humidity;BMP_temperature;BMP_pressure;BME280_temperature;BME280_humidity;BME280_pressure;Samples;Min_cycle;Max_cycle;Signal;HPM_P1;HPM_P2
2023/10/06 00:01:44;;;;;;;11.10;3.65;;;14.10;92.90;;;;;;4993168;28;20050;-78
2023/10/06 00:04:15;;;;;;;9.38;3.42;;;14.20;93.10;;;;;;4996276;28;20034;-78
2023/10/06 00:06:45;;;;;;;7.88;3.58;;;14.10;93.10;;;;;;4996901;28;20034;-77
2023/10/06 00:09:21;;;;;;;9.68;3.33;;;14.10;93.10;;;;;;4997076;28;20030;-77
2023/10/06 00:11:50;;;;;;;7.60;3.60;;;14.10;93.20;;;;;;4996075;28;20047;-77
2023/10/06 00:17:00;;;;;;;7.55;3.20;;;14.10;93.40;;;;;;4997182;28;20040;-77
2023/10/06 00:19:32;;;;;;;9.48;3.50;;;14.10;93.30;;;;;;4996839;28;20030;-77
2023/10/06 00:22:40;;;;;;;9.63;3.92;;;14.10;93.50;;;;;;4996591;28;20125;-77
2023/10/06 00:24:50;;;;;;;6.18;3.25;;;14.10;93.70;;;;;;4983250;28;20066;-78
2023/10/06 00:27:21;;;;;;;7.35;3.70;;;14.10;93.50;;;;;;4996165;28;20482;-77
2023/10/06 00:29:54;;;;;;;8.25;3.42;;;14.10;93.50;;;;;;4996709;28;20038;-77
2023/10/06 00:32:25;;;;;;;10.55;4.20;;;14.10;93.60;;;;;;4995797;28;20031;-77
2023/10/06 00:34:54;;;;;;;7.65;3.03;;;14.10;93.60;;;;;;4991710;28;20047;-77
2023/10/06 00:37:23;;;;;;;7.78;2.92;;;14.00;93.60;;;;;;4995580;28;20045;-77
2023/10/06 00:39:50;;;;;;;5.55;3.13;;;14.00;93.60;;;;;;4996131;28;20039;-77
2023/10/06 00:42:19;;;;;;;9.32;3.45;;;14.00;93.70;;;;;;4995825;28;20046;-77
2023/10/06 00:44:45;;;;;;;10.98;3.90;;;14.00;93.70;;;;;;4996137;28;20031;-77
2023/10/06 00:47:13;;;;;;;11.68;3.72;;;14.00;93.80;;;;;;4995722;28;20050;-77
2023/10/06 00:49:40;;;;;;;10.68;3.75;;;14.00;93.90;;;;;;4978267;28;20034;-77
2023/10/06 00:52:07;;;;;;;9.40;4.47;;;14.00;93.90;;;;;;4996017;28;20486;-77
2023/10/06 00:54:34;;;;;;;10.57;4.45;;;14.00;94.00;;;;;;4996536;28;20042;-77
2023/10/06 00:57:08;;;;;;;8.45;4.00;;;14.00;94.00;;;;;;4995358;28;20034;-76
2023/10/06 00:59:35;;;;;;;;;;;13.90;94.10;;;;;;4979191;28;20030;-77
2023/10/06 01:02:01;;;;;;;10.57;3.80;;;13.90;94.30;;;;;;4995880;28;19965;-77
2023/10/06 01:04:33;;;;;;;12.15;4.75;;;13.90;94.30;;;;;;4995832;28;20068;-76
2023/10/06 01:07:00;;;;;;;8.98;3.85;;;13.90;94.30;;;;;;4995575;28;20058;-76
2023/10/06 01:09:33;;;;;;;10.23;4.13;;;13.90;94.30;;;;;;4995639;28;20093;-75
2023/10/06 01:11:58;;;;;;;13.00;4.38;;;13.80;94.40;;;;;;4995407;28;20034;-76
2023/10/06 01:14:26;;;;;;;8.98;4.47;;;13.80;94.50;;;;;;4995258;28;20038;-77
2023/10/06 01:17:03;;;;;;;10.85;4.68;;;13.80;94.50;;;;;;4995683;28;20042;-77
2023/10/06 01:19:33;;;;;;;11.38;4.35;;;13.70;94.60;;;;;;4995462;28;20038;-78
2023/10/06 01:22:07;;;;;;;8.75;3.88;;;13.70;94.70;;;;;;4996320;28;20035;-77
2023/10/06 01:24:36;;;;;;;9.70;4.15;;;13.70;94.70;;;;;;4995210;28;20049;-77
2023/10/06 01:27:06;;;;;;;8.27;4.40;;;13.70;94.80;;;;;;4995398;28;20030;-77
2023/10/06 01:29:33;;;;;;;8.95;4.30;;;13.70;94.90;;;;;;4995321;28;20036;-77
2023/10/06 01:32:06;;;;;;;11.10;4.72;;;13.70;94.90;;;;;;4995400;28;20031;-77
2023/10/06 01:34:38;;;;;;;8.65;4.78;;;13.70;95.10;;;;;;4995439;28;20041;-77
2023/10/06 01:37:09;;;;;;;12.98;4.78;;;13.70;95.20;;;;;;4995196;28;20399;-77
2023/10/06 01:39:35;;;;;;;12.70;4.95;;;13.60;95.30;;;;;;4994877;28;20390;-77
2023/10/06 01:42:04;;;;;;;14.15;5.18;;;13.60;95.50;;;;;;4995394;28;20100;-77
2023/10/06 01:44:30;;;;;;;8.65;4.13;;;13.60;95.70;;;;;;4995035;28;20648;-77
2023/10/06 01:46:57;;;;;;;10.43;4.07;;;13.60;95.60;;;;;;4977380;28;20097;-77
2023/10/06 01:49:23;;;;;;;11.27;4.90;;;13.60;95.70;;;;;;4977253;28;20037;-77
2023/10/06 01:51:53;;;;;;;9.27;4.90;;;13.60;95.80;;;;;;4994710;28;20030;-77
2023/10/06 01:54:25;;;;;;;10.10;4.97;;;13.50;95.80;;;;;;4977082;28;20554;-77
2023/10/06 01:56:53;;;;;;;13.77;4.97;;;13.50;95.90;;;;;;4994645;28;20034;-77
2023/10/06 01:59:20;;;;;;;11.23;4.57;;;13.50;96.00;;;;;;4977243;28;20026;-77
2023/10/06 02:01:47;;;;;;;11.45;5.03;;;13.50;96.20;;;;;;4994824;28;20511;-77
2023/10/06 02:04:19;;;;;;;12.82;4.32;;;13.50;96.30;;;;;;4994512;28;20027;-77
2023/10/06 02:06:48;;;;;;;11.15;4.75;;;13.50;96.40;;;;;;4994789;28;20058;-77
2023/10/06 02:09:18;;;;;;;8.80;4.60;;;13.40;96.30;;;;;;4994151;28;20054;-77
2023/10/06 02:11:45;;;;;;;10.45;4.85;;;13.40;96.40;;;;;;4994469;28;20506;-78
2023/10/06 02:14:14;;;;;;;8.40;4.38;;;13.40;96.50;;;;;;4977065;28;20041;-77
2023/10/06 02:16:40;;;;;;;10.68;5.18;;;13.40;96.50;;;;;;4976998;28;20038;-78
2023/10/06 02:19:09;;;;;;;11.90;5.05;;;13.40;96.60;;;;;;4994427;28;20046;-77
2023/10/06 02:21:35;;;;;;;8.32;4.57;;;13.40;96.90;;;;;;4994462;28;20066;-77
2023/10/06 02:24:04;;;;;;;11.05;5.07;;;13.40;96.90;;;;;;4994072;28;20035;-77
2023/10/06 02:26:40;;;;;;;10.93;4.88;;;13.30;96.90;;;;;;4993440;28;20027;-77
2023/10/06 02:29:19;;;;;;;10.38;4.53;;;13.30;97.00;;;;;;4976638;28;20085;-76
2023/10/06 02:31:45;;;;;;;12.10;4.25;;;13.30;97.10;;;;;;4993786;28;20042;-77
2023/10/06 02:34:23;;;;;;;10.55;4.07;;;13.30;97.10;;;;;;4994285;28;20401;-77
2023/10/06 02:36:48;;;;;;;8.52;4.03;;;13.30;97.40;;;;;;4993893;28;20054;-77
2023/10/06 02:39:16;;;;;;;9.13;4.22;;;13.30;97.20;;;;;;4976612;28;20457;-77
2023/10/06 02:41:41;;;;;;;10.93;4.93;;;13.30;97.30;;;;;;4993930;28;20030;-77
2023/10/06 02:44:14;;;;;;;8.77;4.20;;;13.30;97.40;;;;;;4994170;28;20433;-77
2023/10/06 02:46:44;;;;;;;8.65;3.67;;;13.30;97.50;;;;;;4993850;28;20035;-76
2023/10/06 02:49:12;;;;;;;14.93;4.15;;;13.30;97.60;;;;;;4993569;28;20478;-75
2023/10/06 02:51:47;;;;;;;10.25;4.38;;;13.30;97.70;;;;;;4993109;28;20121;-77
2023/10/06 02:54:21;;;;;;;8.90;4.63;;;13.30;97.80;;;;;;4993836;28;20042;-76
2023/10/06 02:56:47;;;;;;;11.93;4.50;;;13.30;97.80;;;;;;4993852;28;20034;-77
2023/10/06 02:59:24;;;;;;;11.25;4.22;;;13.30;98.00;;;;;;4976485;28;20030;-77
2023/10/06 03:01:57;;;;;;;9.75;4.43;;;13.30;97.90;;;;;;4993753;28;20034;-77
2023/10/06 03:04:27;;;;;;;10.18;4.30;;;13.20;98.00;;;;;;4993654;28;20030;-76
2023/10/06 03:06:58;;;;;;;10.57;4.35;;;13.20;98.00;;;;;;4993409;28;20038;-77
2023/10/06 03:09:36;;;;;;;12.52;4.47;;;13.20;98.20;;;;;;4994112;28;20046;-77
2023/10/06 03:12:11;;;;;;;9.60;3.95;;;13.20;98.30;;;;;;4993981;28;20043;-76
2023/10/06 03:14:37;;;;;;;11.75;4.78;;;13.20;98.40;;;;;;4975971;28;20041;-77
2023/10/06 03:17:06;;;;;;;10.73;4.90;;;13.10;98.50;;;;;;4993607;28;20034;-76
2023/10/06 03:19:33;;;;;;;11.70;5.20;;;13.10;98.60;;;;;;4993598;28;20502;-76
2023/10/06 03:22:04;;;;;;;11.05;4.30;;;13.10;98.60;;;;;;4993224;28;20061;-77
2023/10/06 03:24:33;;;;;;;12.65;4.68;;;13.10;98.60;;;;;;4993585;28;20031;-76
2023/10/06 03:27:04;;;;;;;9.82;4.38;;;13.00;98.90;;;;;;4993511;28;20023;-76
2023/10/06 03:32:22;;;;;;;9.18;4.70;;;13.00;98.90;;;;;;4993463;28;20133;-76
2023/10/06 03:34:51;;;;;;;10.32;4.32;;;13.00;99.00;;;;;;4993107;28;20031;-76
2023/10/06 03:37:34;;;;;;;9.90;4.25;;;13.00;99.10;;;;;;4995521;28;20041;-76
2023/10/06 03:40:10;;;;;;;10.35;4.93;;;12.90;99.10;;;;;;4997559;28;20133;-77
2023/10/06 03:42:37;;;;;;;14.63;5.30;;;12.90;99.20;;;;;;4997607;28;20123;-77
2023/10/06 03:45:26;;;;;;;13.30;4.85;;;12.90;99.20;;;;;;4997275;28;20042;-77
2023/10/06 03:47:50;;;;;;;10.85;4.32;;;12.90;99.30;;;;;;4996615;28;20050;-77
2023/10/06 03:50:17;;;;;;;12.55;5.05;;;12.90;99.30;;;;;;4996564;28;20130;-77
2023/10/06 03:52:43;;;;;;;14.10;5.72;;;12.90;99.70;;;;;;4979754;28;20034;-76
2023/10/06 03:55:12;;;;;;;13.35;5.47;;;12.80;99.90;;;;;;4997111;28;20037;-77
2023/10/06 03:57:37;;;;;;;10.77;4.00;;;12.90;99.70;;;;;;4997163;28;20042;-77
2023/10/06 04:00:05;;;;;;;15.40;5.45;;;12.80;99.70;;;;;;4979548;28;20038;-77
2023/10/06 04:02:38;;;;;;;13.68;5.22;;;12.80;99.90;;;;;;4996938;28;20092;-76
2023/10/06 04:05:07;;;;;;;11.50;5.65;;;12.80;99.90;;;;;;4979119;28;20034;-77
2023/10/06 04:07:33;;;;;;;12.80;5.80;;;12.80;99.90;;;;;;4996883;28;20044;-77
2023/10/06 04:09:59;;;;;;;12.50;5.25;;;12.80;99.90;;;;;;4996933;28;20030;-78
2023/10/06 04:12:25;;;;;;;15.80;5.25;;;12.80;99.90;;;;;;4996784;28;20121;-76
2023/10/06 04:14:53;;;;;;;9.52;4.40;;;12.80;99.90;;;;;;4996449;28;20575;-76
2023/10/06 04:17:21;;;;;;;11.38;4.90;;;12.70;99.90;;;;;;4996583;28;20050;-77
2023/10/06 04:19:48;;;;;;;10.15;4.82;;;12.70;99.90;;;;;;4978939;28;20034;-77
2023/10/06 04:22:14;;;;;;;11.27;4.82;;;12.70;99.90;;;;;;4996799;28;20030;-77
2023/10/06 04:24:40;;;;;;;12.50;5.03;;;12.70;99.90;;;;;;4996291;28;20041;-77
2023/10/06 04:27:05;;;;;;;10.70;4.28;;;12.70;99.90;;;;;;4979024;28;20066;-77
2023/10/06 04:29:35;;;;;;;12.40;4.00;;;12.80;99.90;;;;;;4996465;28;20113;-76
2023/10/06 04:32:01;;;;;;;12.43;4.57;;;12.70;99.90;;;;;;4996243;28;20034;-77
2023/10/06 04:34:36;;;;;;;12.63;5.32;;;12.70;99.90;;;;;;4978436;28;20026;-76
2023/10/06 04:37:07;;;;;;;12.00;5.78;;;12.70;99.90;;;;;;4978496;28;20126;-76
2023/10/06 04:39:33;;;;;;;10.38;5.00;;;12.70;99.90;;;;;;4996386;28;20049;-77
2023/10/06 04:42:00;;;;;;;11.93;5.43;;;12.80;99.90;;;;;;4996423;28;20041;-76
2023/10/06 04:44:25;;;;;;;11.93;4.85;;;12.70;99.90;;;;;;4978713;28;20031;-76
2023/10/06 04:46:52;;;;;;;13.57;5.40;;;12.80;99.90;;;;;;4978199;28;20053;-76
2023/10/06 04:49:17;;;;;;;13.00;5.15;;;12.80;99.90;;;;;;4994845;28;20031;-77
2023/10/06 04:51:43;;;;;;;11.35;4.47;;;12.80;99.90;;;;;;4978592;28;20113;-77
2023/10/06 04:54:09;;;;;;;10.80;5.15;;;12.80;99.90;;;;;;4996027;28;20158;-77
2023/10/06 04:56:34;;;;;;;10.07;4.38;;;12.80;99.90;;;;;;4978543;28;20122;-77
2023/10/06 04:59:00;;;;;;;10.18;4.97;;;12.80;99.90;;;;;;4996006;28;20594;-77
2023/10/06 05:01:30;;;;;;;11.85;5.00;;;12.70;99.90;;;;;;4996216;28;20050;-77
2023/10/06 05:03:56;;;;;;;10.23;4.70;;;12.70;99.90;;;;;;4995715;28;20397;-77
2023/10/06 05:06:25;;;;;;;10.55;5.13;;;12.80;99.90;;;;;;4995720;28;20045;-78
2023/10/06 05:08:51;;;;;;;10.23;4.43;;;12.70;99.90;;;;;;4995711;28;20042;-78
2023/10/06 05:11:20;;;;;;;12.70;5.40;;;12.70;99.90;;;;;;5005876;28;20038;-77
2023/10/06 05:13:52;;;;;;;12.40;4.70;;;12.70;99.90;;;;;;4995724;28;20056;-77
2023/10/06 05:16:19;;;;;;;9.88;5.13;;;12.70;99.90;;;;;;4995561;28;20033;-78
2023/10/06 05:18:45;;;;;;;11.98;4.75;;;12.70;99.90;;;;;;4995371;28;20101;-78
2023/10/06 05:21:11;;;;;;;8.48;5.05;;;12.80;99.90;;;;;;4995554;28;20450;-78
2023/10/06 05:23:37;;;;;;;8.18;4.38;;;12.70;99.90;;;;;;4995698;28;20070;-78
2023/10/06 05:26:04;;;;;;;9.90;4.70;;;12.70;99.90;;;;;;4994869;28;20039;-78
2023/10/06 05:28:31;;;;;;;13.52;4.75;;;12.70;99.90;;;;;;4995337;28;20064;-78
2023/10/06 05:30:57;;;;;;;14.50;4.85;;;12.70;99.90;;;;;;4974348;28;20102;-78
2023/10/06 05:33:24;;;;;;;10.55;4.70;;;12.80;99.90;;;;;;4961332;28;20043;-78
2023/10/06 05:35:51;;;;;;;12.23;5.10;;;12.80;99.90;;;;;;4989723;28;20486;-78
2023/10/06 05:38:17;;;;;;;10.38;4.35;;;12.80;99.90;;;;;;4994527;28;20101;-78
2023/10/06 05:40:44;;;;;;;13.63;5.47;;;12.80;99.90;;;;;;4994725;28;20097;-79
2023/10/06 05:43:11;;;;;;;13.57;6.47;;;12.90;99.90;;;;;;4995067;28;20069;-78
2023/10/06 05:45:39;;;;;;;13.13;7.00;;;12.90;99.90;;;;;;4994416;28;20125;-78
2023/10/06 05:48:12;;;;;;;12.70;6.68;;;12.90;99.90;;;;;;4994964;28;20038;-78
2023/10/06 05:50:40;;;;;;;15.40;7.38;;;12.80;99.90;;;;;;4994897;28;20031;-78
2023/10/06 05:53:12;;;;;;;11.25;7.10;;;12.90;99.90;;;;;;4958021;28;20053;-78
2023/10/06 05:55:41;;;;;;;14.15;7.25;;;12.90;99.90;;;;;;4975327;28;20360;-79
2023/10/06 05:58:15;;;;;;;16.73;7.00;;;12.90;99.90;;;;;;4975168;28;20031;-79
2023/10/06 06:00:52;;;;;;;13.60;6.80;;;12.90;99.90;;;;;;4942399;28;20387;-78
2023/10/06 06:03:23;;;;;;;13.50;6.50;;;12.90;99.90;;;;;;4975265;28;20105;-77
2023/10/06 06:05:50;;;;;;;17.40;6.07;;;12.90;99.90;;;;;;4958156;28;20031;-77
2023/10/06 06:08:16;;;;;;;12.40;5.57;;;12.90;99.90;;;;;;4975074;28;20042;-78
2023/10/06 06:10:41;;;;;;;11.30;5.25;;;12.90;99.90;;;;;;4957515;28;20391;-78
2023/10/06 06:13:07;;;;;;;12.70;5.35;;;12.90;99.90;;;;;;4974834;28;20047;-78
2023/10/06 06:15:35;;;;;;;14.95;5.13;;;13.00;99.90;;;;;;4974691;28;20406;-77
2023/10/06 06:18:01;;;;;;;15.93;5.85;;;13.00;99.90;;;;;;4974884;28;20019;-78
2023/10/06 06:20:27;;;;;;;9.40;4.22;;;13.00;99.90;;;;;;4974698;28;20035;-78
2023/10/06 06:22:53;;;;;;;12.38;4.03;;;13.00;99.90;;;;;;4974779;28;20033;-79
2023/10/06 06:25:29;;;;;;;12.30;4.32;;;13.00;99.90;;;;;;4974504;28;20038;-78
2023/10/06 06:27:59;;;;;;;11.65;4.88;;;13.00;99.90;;;;;;4957199;28;20031;-78
2023/10/06 06:30:25;;;;;;;12.77;4.55;;;13.00;99.90;;;;;;4974246;28;20035;-78
2023/10/06 06:32:53;;;;;;;12.63;4.70;;;13.10;99.90;;;;;;4957186;28;20039;-78
2023/10/06 06:35:21;;;;;;;10.45;4.18;;;13.10;99.80;;;;;;4974675;28;20094;-78
2023/10/06 06:37:52;;;;;;;9.10;3.67;;;13.10;99.80;;;;;;4974430;28;20031;-78
2023/10/06 06:40:19;;;;;;;9.88;3.95;;;13.10;99.80;;;;;;4974496;28;20042;-78
2023/10/06 06:42:47;;;;;;;9.25;4.18;;;13.10;99.80;;;;;;4964818;28;20038;-78
2023/10/06 06:45:13;;;;;;;10.43;3.85;;;13.20;99.80;;;;;;4956722;28;20030;-78
2023/10/06 06:47:41;;;;;;;11.05;4.05;;;13.20;99.70;;;;;;4973174;28;20078;-79
2023/10/06 06:50:13;;;;;;;10.43;3.53;;;13.20;99.70;;;;;;4974453;28;20035;-78
2023/10/06 06:52:40;;;;;;;7.68;3.30;;;13.20;99.60;;;;;;4977397;28;20034;-78
2023/10/06 06:55:12;;;;;;;13.35;3.97;;;13.30;99.60;;;;;;4984970;28;20475;-79
2023/10/06 06:57:49;;;;;;;8.43;3.03;;;13.30;99.50;;;;;;4965275;28;20074;-79
2023/10/06 07:00:24;;;;;;;6.03;3.25;;;13.40;99.60;;;;;;4984713;28;20030;-78
2023/10/06 07:02:52;;;;;;;8.23;4.03;;;13.40;99.50;;;;;;4984578;28;20041;-78
2023/10/06 07:05:20;;;;;;;8.75;3.47;;;13.40;99.40;;;;;;4964387;28;20077;-79
2023/10/06 07:07:47;;;;;;;11.25;3.42;;;13.40;99.30;;;;;;4974916;28;20045;-78
2023/10/06 07:10:15;;;;;;;10.32;3.55;;;13.40;99.30;;;;;;4970001;28;20049;-80
2023/10/06 07:12:44;;;;;;;8.90;3.65;;;13.40;99.30;;;;;;4971820;28;20407;-80
2023/10/06 07:15:17;;;;;;;10.57;3.90;;;13.40;99.20;;;;;;4978673;28;20042;-79
2023/10/06 07:17:48;;;;;;;10.40;3.37;;;13.40;99.20;;;;;;4956481;28;20508;-80
2023/10/06 07:20:16;;;;;;;10.95;3.58;;;13.40;99.10;;;;;;4956586;28;20038;-80
2023/10/06 07:22:46;;;;;;;11.82;3.45;;;13.40;99.10;;;;;;4973776;28;20038;-79
2023/10/06 07:25:15;;;;;;;9.05;3.40;;;13.40;99.10;;;;;;4973835;28;20034;-81
2023/10/06 07:27:45;;;;;;;7.55;2.88;;;13.50;99.10;;;;;;4956120;28;20026;-79
2023/10/06 07:30:19;;;;;;;7.80;3.83;;;13.50;99.10;;;;;;4956656;28;20479;-80
2023/10/06 07:32:47;;;;;;;10.50;2.83;;;13.50;99.10;;;;;;4973796;28;20039;-80
2023/10/06 07:35:15;;;;;;;8.15;2.97;;;13.60;99.10;;;;;;4956457;28;20058;-82
2023/10/06 07:37:43;;;;;;;10.88;3.38;;;13.60;99.00;;;;;;4956210;28;20035;-80
2023/10/06 07:40:32;;;;;;;8.45;2.72;;;13.60;99.00;;;;;;4973657;28;20027;-80
2023/10/06 07:42:58;;;;;;;14.77;3.67;;;13.70;99.10;;;;;;4973458;28;20111;-80
2023/10/06 07:45:26;;;;;;;8.35;2.95;;;13.70;99.10;;;;;;4971401;28;20403;-80
2023/10/06 07:47:53;;;;;;;7.68;3.13;;;13.80;99.00;;;;;;4992216;28;20041;-81
2023/10/06 07:50:19;;;;;;;8.60;3.17;;;13.80;98.90;;;;;;4992698;28;20042;-80
2023/10/06 07:52:46;;;;;;;6.68;2.40;;;13.90;98.90;;;;;;4974785;28;20387;-81
2023/10/06 07:55:12;;;;;;;10.13;3.00;;;14.00;98.90;;;;;;4992939;28;20038;-81
2023/10/06 07:57:46;;;;;;;12.18;3.33;;;14.00;98.80;;;;;;4992972;28;20042;-81
2023/10/06 08:00:18;;;;;;;11.05;2.92;;;14.10;98.70;;;;;;4992685;28;20030;-79
2023/10/06 08:02:45;;;;;;;11.55;3.53;;;14.20;98.60;;;;;;4975370;28;20125;-81
2023/10/06 08:05:11;;;;;;;13.25;2.97;;;14.20;98.40;;;;;;4992675;28;20041;-81
2023/10/06 08:07:42;;;;;;;5.88;2.72;;;14.30;98.50;;;;;;4992717;28;20034;-81
2023/10/06 08:10:13;;;;;;;8.38;2.75;;;14.30;98.40;;;;;;4974411;28;20092;-80
2023/10/06 08:12:43;;;;;;;11.85;3.88;;;14.40;98.40;;;;;;4992791;28;20038;-80
2023/10/06 08:15:10;;;;;;;10.70;3.47;;;14.50;98.30;;;;;;4975440;28;20489;-80
2023/10/06 08:17:36;;;;;;;9.48;2.83;;;14.50;98.10;;;;;;4992707;28;20085;-79
2023/10/06 08:20:05;;;;;;;11.13;3.15;;;14.70;98.20;;;;;;4974524;28;20027;-77
2023/10/06 08:22:33;;;;;;;9.32;3.20;;;14.70;97.90;;;;;;4992634;28;20030;-79
2023/10/06 08:25:02;;;;;;;11.38;3.70;;;14.80;98.00;;;;;;4995169;28;20394;-79
2023/10/06 08:27:33;;;;;;;8.93;3.33;;;14.90;97.90;;;;;;4942022;29;20659;-81
2023/10/06 08:29:59;;;;;;;10.10;3.40;;;15.00;97.70;;;;;;4949373;29;20427;-82
2023/10/06 08:32:27;;;;;;;6.60;2.50;;;15.10;97.80;;;;;;4945685;29;20055;-81
2023/10/06 08:35:12;;;;;;;9.85;3.20;;;15.30;97.70;;;;;;4939955;29;20032;-80
2023/10/06 08:37:56;;;;;;;9.50;2.65;;;15.30;97.60;;;;;;4935731;29;20043;-79
2023/10/06 08:40:26;;;;;;;11.07;3.37;;;15.50;97.40;;;;;;4938920;29;20028;-78
2023/10/06 08:42:59;;;;;;;8.57;2.80;;;15.60;97.10;;;;;;4947287;29;20370;-82
2023/10/06 08:46:15;;;;;;;13.77;3.05;;;15.60;96.90;;;;;;4932841;29;20102;-81
2023/10/06 08:48:50;;;;;;;10.93;2.35;;;15.70;96.70;;;;;;4872189;29;20053;-83
2023/10/06 08:51:21;;;;;;;7.45;2.78;;;15.80;96.60;;;;;;4954609;29;20495;-81
2023/10/06 08:53:49;;;;;;;9.88;3.17;;;15.90;96.50;;;;;;4953944;29;20076;-80
2023/10/06 08:56:15;;;;;;;8.38;2.70;;;16.10;96.40;;;;;;4951798;29;20110;-82
2023/10/06 08:58:41;;;;;;;10.18;2.90;;;16.20;96.30;;;;;;4926584;29;20035;-81
2023/10/06 09:01:10;;;;;;;8.98;3.13;;;16.30;96.10;;;;;;4944708;29;20047;-78
2023/10/06 09:03:38;;;;;;;5.68;2.38;;;16.40;95.70;;;;;;4949702;29;20122;-79
2023/10/06 09:06:11;;;;;;;10.50;3.10;;;16.50;95.40;;;;;;4969016;28;20031;-81
2023/10/06 09:08:42;;;;;;;7.45;2.72;;;16.60;95.50;;;;;;4975253;28;20045;-78
2023/10/06 09:11:08;;;;;;;10.13;3.30;;;16.70;95.40;;;;;;4965402;28;20046;-79
2023/10/06 09:13:33;;;;;;;6.65;2.67;;;16.80;94.90;;;;;;4956753;28;20047;-79
2023/10/06 09:16:06;;;;;;;10.38;2.95;;;16.90;94.90;;;;;;4972317;28;20038;-79
2023/10/06 09:18:34;;;;;;;9.27;2.65;;;17.00;94.60;;;;;;4939654;29;20031;-78
2023/10/06 09:21:19;;;;;;;8.98;3.22;;;17.00;94.60;;;;;;4939547;29;20035;-79
2023/10/06 09:23:45;;;;;;;6.32;2.53;;;17.20;94.60;;;;;;4956134;28;20043;-78
2023/10/06 09:26:13;;;;;;;7.97;2.85;;;17.30;94.40;;;;;;4939112;28;20620;-79
2023/10/06 09:28:55;;;;;;;13.30;3.28;;;17.40;94.20;;;;;;4962464;28;20027;-79
2023/10/06 09:31:44;;;;;;;10.60;2.55;;;17.40;93.90;;;;;;4958308;28;20400;-78
2023/10/06 09:34:11;;;;;;;7.75;2.97;;;17.50;93.50;;;;;;4941390;28;20412;-80
2023/10/06 09:36:42;;;;;;;8.82;2.80;;;17.50;93.30;;;;;;4969788;28;20093;-80
2023/10/06 09:39:14;;;;;;;7.97;2.90;;;17.60;93.30;;;;;;4964585;28;20042;-79
2023/10/06 09:41:40;;;;;;;9.70;2.92;;;17.60;93.20;;;;;;4938860;29;20434;-80
2023/10/06 09:44:09;;;;;;;7.72;2.42;;;17.70;93.20;;;;;;4956319;29;20098;-79
2023/10/06 09:46:35;;;;;;;12.52;3.03;;;17.70;93.10;;;;;;4959892;28;20034;-77
2023/10/06 09:49:06;;;;;;;9.18;2.85;;;17.80;92.90;;;;;;4994372;28;20084;-80
2023/10/06 09:51:33;;;;;;;10.52;3.45;;;17.80;92.60;;;;;;4994546;28;20047;-81
2023/10/06 09:54:00;;;;;;;9.57;2.67;;;17.80;92.50;;;;;;4994533;28;20422;-80
2023/10/06 09:56:27;;;;;;;9.77;2.92;;;17.80;92.40;;;;;;4994692;28;20031;-81
2023/10/06 09:58:54;;;;;;;12.68;3.20;;;17.90;92.30;;;;;;4994683;28;20069;-81
2023/10/06 10:01:25;;;;;;;10.05;3.33;;;17.90;92.00;;;;;;4995093;28;20053;-79
2023/10/06 10:03:56;;;;;;;10.73;2.70;;;18.00;92.10;;;;;;5002397;28;20093;-80
2023/10/06 10:06:22;;;;;;;10.52;2.75;;;18.30;92.40;;;;;;4981716;28;20093;-80
2023/10/06 10:08:51;;;;;;;6.72;2.10;;;18.70;92.30;;;;;;4994627;28;20034;-81
2023/10/06 10:11:39;;;;;;;7.53;2.15;;;19.20;92.40;;;;;;4994377;28;20045;-80
2023/10/06 10:14:28;;;;;;;8.00;1.80;;;19.80;92.10;;;;;;4994512;28;20042;-80
2023/10/06 10:17:44;;;;;;;7.15;2.25;;;20.30;90.90;;;;;;4994559;28;20034;-80
2023/10/06 10:20:12;;;;;;;8.18;2.70;;;20.60;89.80;;;;;;4951264;28;20046;-80
2023/10/06 10:22:40;;;;;;;5.65;1.73;;;20.70;87.10;;;;;;4993734;28;20027;-80
2023/10/06 10:25:08;;;;;;;4.60;1.52;;;21.00;86.50;;;;;;4977286;28;20500;-80
2023/10/06 10:27:37;;;;;;;11.55;2.88;;;21.20;85.30;;;;;;4994244;28;20058;-80
2023/10/06 10:30:12;;;;;;;7.93;1.85;;;21.40;83.40;;;;;;4994433;28;20038;-79
2023/10/06 10:32:42;;;;;;;6.07;2.05;;;21.70;81.80;;;;;;4996155;28;20044;-81
2023/10/06 10:35:18;;;;;;;6.50;2.03;;;21.90;82.00;;;;;;4994249;28;20045;-81
2023/10/06 10:37:58;;;;;;;8.27;2.70;;;22.20;80.60;;;;;;4994225;28;20432;-80
2023/10/06 10:40:29;;;;;;;8.10;2.40;;;22.50;78.50;;;;;;4994106;28;20061;-81
2023/10/06 10:43:04;;;;;;;6.78;2.03;;;22.70;76.90;;;;;;4994234;28;20026;-80
2023/10/06 10:45:36;;;;;;;6.05;1.92;;;22.70;74.80;;;;;;4994207;28;20034;-80
2023/10/06 10:48:13;;;;;;;11.43;2.08;;;22.70;74.70;;;;;;4993718;28;20056;-80
2023/10/06 10:50:57;;;;;;;9.88;1.95;;;22.50;73.70;;;;;;4993418;28;20088;-80
2023/10/06 10:53:26;;;;;;;9.55;2.72;;;22.30;73.30;;;;;;4993893;28;20038;-81
2023/10/06 10:55:52;;;;;;;7.47;2.28;;;22.10;72.90;;;;;;4976404;28;20534;-80
2023/10/06 10:58:47;;;;;;;11.23;2.13;;;21.70;73.00;;;;;;4994309;28;20026;-80
2023/10/06 11:01:38;;;;;;;7.22;2.10;;;21.50;73.20;;;;;;4994055;28;20022;-80
2023/10/06 11:04:12;;;;;;;8.07;2.42;;;21.30;73.70;;;;;;4993918;28;20027;-79
2023/10/06 11:06:43;;;;;;;6.82;2.00;;;21.10;73.60;;;;;;4994015;28;20039;-82
2023/10/06 11:12:05;;;;;;;9.25;2.70;;;20.90;74.40;;;;;;4994138;28;20049;-80
